Time;durP1;ratioP1;P1;durP2;ratioP2;P2;SDS_P1;SDS_P2;PMS_P1;PMS_P2;Temp;Humidity;BMP_temperature;BMP_pressure;BME280_temperature;BME280_humidity;BME280_pressure;Samples;Min_cycle;Max_cycle;Signal;HPM_P1;HPM_P2
2022/09/28 00:01:55;;;;;;;18.95;14.88;;;7.40;99.90;;;7.66;100.00;98006.31;5061285;27;119609;-70
2022/09/28 00:04:25;;;;;;;18.42;14.10;;;7.50;99.90;;;7.73;100.00;97995.78;5062418;27;130714;-69
2022/09/28 00:06:54;;;;;;;19.05;13.82;;;7.50;99.90;;;7.85;100.00;97993.16;5059252;27;129559;-69
2022/09/28 00:09:23;;;;;;;19.10;13.90;;;7.50;99.90;;;7.89;100.00;97993.28;5059746;27;122074;-69
2022/09/28 00:11:52;;;;;;;17.95;13.15;;;7.50;99.90;;;7.91;100.00;97991.78;5060433;27;122035;-70
2022/09/28 00:14:21;;;;;;;19.60;13.57;;;7.60;99.90;;;8.02;100.00;97991.41;5060502;27;129909;-69
2022/09/28 00:16:50;;;;;;;16.83;12.80;;;7.60;99.90;;;8.06;100.00;97990.41;5060044;27;129677;-69
2022/09/28 00:19:19;;;;;;;16.65;13.30;;;7.60;99.90;;;8.04;100.00;97981.06;5045813;27;119609;-69
2022/09/28 00:21:49;;;;;;;17.17;12.43;;;7.60;99.90;;;7.88;100.00;97975.47;5060454;27;119609;-70
2022/09/28 00:24:19;;;;;;;17.42;12.65;;;7.60;99.90;;;7.73;100.00;97971.47;5060221;27;130329;-69
2022/09/28 00:26:50;;;;;;;16.88;13.05;;;7.60;99.90;;;7.62;100.00;97972.97;5059984;27;129587;-70
2022/09/28 00:29:25;;;;;;;16.60;11.73;;;7.50;99.90;;;7.56;100.00;97973.16;5060920;27;119975;-71
2022/09/28 00:31:58;;;;;;;15.68;12.00;;;7.60;99.90;;;7.49;100.00;97975.59;5028089;27;120050;-70
2022/09/28 00:34:27;;;;;;;16.95;12.80;;;7.50;99.90;;;7.49;100.00;97964.78;5058831;27;130519;-70
2022/09/28 00:36:58;;;;;;;15.23;11.82;;;7.50;99.90;;;7.41;100.00;97962.94;5028119;27;129273;-70
2022/09/28 00:39:26;;;;;;;16.75;12.15;;;7.50;99.90;;;7.40;100.00;97957.88;5045264;27;119144;-70
2022/09/28 00:41:55;;;;;;;15.13;12.10;;;7.50;99.90;;;7.40;100.00;97964.06;5058864;27;120884;-69
2022/09/28 00:44:41;;;;;;;17.83;12.68;;;7.50;99.90;;;7.43;100.00;97966.09;5027970;27;129677;-71
2022/09/28 00:47:43;;;;;;;15.77;12.43;;;7.50;99.90;;;7.42;100.00;97969.94;5058070;27;129846;-68
2022/09/28 00:50:25;;;;;;;18.25;12.35;;;7.40;99.90;;;7.41;100.00;97968.34;5043990;27;119441;-69
2022/09/28 00:53:01;;;;;;;18.67;12.20;;;7.40;99.90;;;7.39;100.00;97965.19;5043214;27;119798;-68
2022/09/28 00:55:38;;;;;;;16.95;12.70;;;7.40;99.90;;;7.33;100.00;97961.88;5059327;27;129977;-70
2022/09/28 00:58:11;;;;;;;17.83;12.98;;;7.30;99.90;;;7.31;100.00;97966.06;5059312;27;130329;-68
2022/09/28 01:00:41;;;;;;;16.60;12.70;;;7.20;99.90;;;7.23;100.00;97956.09;5059887;27;121814;-69
2022/09/28 01:03:10;;;;;;;17.27;12.77;;;7.10;99.90;;;7.20;100.00;97957.53;5007153;27;1464979;-69
2022/09/28 01:05:40;;;;;;;16.80;12.13;;;7.10;99.90;;;7.17;100.00;97958.19;5042044;27;129884;-68
2022/09/28 01:08:11;;;;;;;19.38;12.80;;;7.00;99.90;;;7.07;100.00;97956.66;5062235;27;129357;-68
2022/09/28 01:10:42;;;;;;;17.80;12.98;;;7.00;99.90;;;7.03;100.00;97950.34;5059825;27;119831;-71
2022/09/28 01:13:12;;;;;;;18.80;13.57;;;7.00;99.90;;;6.99;100.00;97947.47;5060954;27;119484;-69
2022/09/28 01:15:51;;;;;;;20.70;13.85;;;6.80;99.90;;;6.98;100.00;97950.50;5058379;27;129842;-71
2022/09/28 01:18:30;;;;;;;19.80;13.77;;;6.80;99.90;;;6.97;100.00;97947.03;5046192;27;129228;-69
2022/09/28 01:21:04;;;;;;;17.75;13.70;;;6.80;99.90;;;6.98;100.00;97940.53;5042283;27;120331;-70
2022/09/28 01:24:00;;;;;;;21.98;14.18;;;6.90;99.90;;;6.99;100.00;97931.28;5042810;27;119575;-70
2022/09/28 01:26:58;;;;;;;19.40;13.38;;;6.90;99.90;;;7.05;100.00;97923.81;5040088;27;130373;-70
2022/09/28 01:29:52;;;;;;;18.20;13.05;;;7.00;99.90;;;7.06;100.00;97919.19;5062494;27;128788;-70
2022/09/28 01:32:38;;;;;;;21.98;14.68;;;7.00;99.90;;;7.04;100.00;97916.84;5040976;27;119569;-70
2022/09/28 01:35:11;;;;;;;19.90;13.38;;;7.00;99.90;;;7.11;100.00;97916.34;5045123;27;119129;-69
2022/09/28 01:37:50;;;;;;;19.33;13.25;;;7.10;99.90;;;7.14;100.00;97911.06;5058948;27;129808;-68
2022/09/28 01:40:22;;;;;;;19.77;14.20;;;7.10;99.90;;;7.24;100.00;97925.28;5027672;27;129451;-69
2022/09/28 01:43:00;;;;;;;20.55;14.73;;;7.10;99.90;;;7.33;100.00;97926.03;5058800;27;119668;-70
2022/09/28 01:45:34;;;;;;;21.52;14.05;;;7.20;99.90;;;7.42;100.00;97939.44;5029535;27;119177;-68
2022/09/28 01:48:07;;;;;;;20.60;14.50;;;7.20;99.90;;;7.48;100.00;97936.25;5041437;27;130021;-69
2022/09/28 01:50:41;;;;;;;21.10;14.70;;;7.20;99.90;;;7.51;100.00;97934.78;5041906;27;129622;-69
2022/09/28 01:53:21;;;;;;;18.60;13.90;;;7.30;99.90;;;7.53;100.00;97936.03;5044045;27;121886;-69
2022/09/28 01:55:55;;;;;;;20.20;14.40;;;7.30;99.90;;;7.60;100.00;97929.31;5041471;27;122729;-69
2022/09/28 01:58:32;;;;;;;19.45;14.48;;;7.40;99.90;;;7.67;100.00;97935.00;5043468;27;129548;-70
2022/09/28 02:01:09;;;;;;;19.52;13.70;;;7.40;99.90;;;7.71;100.00;97938.59;5041147;27;129581;-69
2022/09/28 02:03:43;;;;;;;19.65;13.13;;;7.50;99.90;;;7.77;100.00;97936.50;5044623;27;119195;-70
2022/09/28 02:06:17;;;;;;;20.63;12.35;;;7.60;99.90;;;7.86;100.00;97939.91;5041817;27;120283;-69
2022/09/28 02:08:52;;;;;;;15.48;12.07;;;7.60;99.90;;;7.95;100.00;97939.81;5059300;27;129718;-69
2022/09/28 02:11:23;;;;;;;15.55;12.05;;;7.70;99.90;;;8.04;100.00;97935.13;5042039;27;129656;-70
2022/09/28 02:14:00;;;;;;;16.67;12.30;;;7.70;99.90;;;8.05;100.00;97937.50;5059054;27;119715;-70
2022/09/28 02:16:37;;;;;;;16.67;11.55;;;7.80;99.90;;;8.04;100.00;97935.94;5041106;27;120888;-69
2022/09/28 02:19:07;;;;;;;13.88;10.68;;;7.80;99.90;;;8.02;100.00;97932.75;5039785;27;129927;-71
2022/09/28 02:21:43;;;;;;;14.38;10.82;;;7.90;99.90;;;8.02;100.00;97937.38;5044557;27;129341;-69
2022/09/28 02:24:21;;;;;;;15.80;10.48;;;7.90;99.90;;;8.05;100.00;97925.91;5042172;27;119636;-71
2022/09/28 02:26:52;;;;;;;14.90;11.30;;;7.90;99.90;;;8.07;100.00;97927.16;5040821;27;119934;-69
2022/09/28 02:29:22;;;;;;;14.45;11.23;;;7.90;99.90;;;8.14;100.00;97923.13;5041114;27;130485;-70
2022/09/28 02:31:52;;;;;;;13.32;10.70;;;7.90;99.90;;;8.19;100.00;97925.59;5044582;27;129506;-70
2022/09/28 02:34:20;;;;;;;13.27;10.57;;;8.00;99.90;;;8.18;100.00;97919.44;5041784;27;120409;-70
2022/09/28 02:36:49;;;;;;;14.25;10.85;;;8.00;99.90;;;8.20;100.00;97919.09;5044740;27;119518;-70
2022/09/28 02:39:18;;;;;;;13.40;9.60;;;8.00;99.90;;;8.19;100.00;97920.97;5041375;27;130375;-70
2022/09/28 02:42:01;;;;;;;14.98;10.35;;;8.00;99.90;;;8.16;100.00;97927.06;5059716;27;129309;-69
2022/09/28 02:45:04;;;;;;;12.32;9.57;;;8.00;99.90;;;8.19;100.00;97926.38;5057196;27;121997;-70
2022/09/28 02:48:01;;;;;;;13.15;9.85;;;8.00;99.90;;;8.22;100.00;97920.31;5060469;27;121362;-69
2022/09/28 02:50:40;;;;;;;13.38;10.02;;;8.10;99.90;;;8.28;100.00;97916.28;5057690;27;130112;-69
2022/09/28 02:53:46;;;;;;;13.35;10.02;;;8.10;99.90;;;8.23;100.00;97915.72;5040875;27;129431;-69
2022/09/28 02:56:41;;;;;;;13.13;9.10;;;8.10;99.90;;;8.25;100.00;97908.06;5044118;27;119277;-69
2022/09/28 02:59:19;;;;;;;13.85;9.90;;;8.10;99.90;;;8.32;100.00;97918.31;5061768;27;119395;-69
2022/09/28 03:02:02;;;;;;;13.77;9.93;;;8.10;99.90;;;8.37;100.00;97915.41;5039600;27;130733;-69
2022/09/28 03:04:40;;;;;;;13.68;10.40;;;8.10;99.90;;;8.46;100.00;97924.22;5026857;27;128617;-69
2022/09/28 03:07:22;;;;;;;12.65;9.93;;;8.20;99.90;;;8.43;100.00;97930.25;5040088;27;119979;-69
2022/09/28 03:10:02;;;;;;;14.23;9.75;;;8.20;99.90;;;8.49;100.00;97920.06;5043685;27;120366;-68
2022/09/28 03:12:32;;;;;;;11.75;9.35;;;8.20;99.90;;;8.54;100.00;97920.66;5056010;27;130437;-69
2022/09/28 03:15:12;;;;;;;13.55;9.57;;;8.30;99.90;;;8.53;100.00;97919.06;5043726;27;130522;-69
2022/09/28 03:17:43;;;;;;;14.65;9.77;;;8.30;99.90;;;8.49;100.00;97915.44;5060277;27;119397;-69
2022/09/28 03:20:12;;;;;;;13.70;9.75;;;8.30;99.90;;;8.51;100.00;97910.50;5043226;27;119178;-68
2022/09/28 03:22:41;;;;;;;12.07;9.18;;;8.30;99.90;;;8.45;100.00;97896.41;5056210;27;130233;-70
2022/09/28 03:25:11;;;;;;;12.68;8.93;;;8.30;99.90;;;8.43;100.00;97897.81;5043203;27;129636;-70
2022/09/28 03:27:40;;;;;;;15.15;9.45;;;8.20;99.90;;;8.37;100.00;97899.97;5039990;27;119867;-70
2022/09/28 03:30:12;;;;;;;15.35;9.65;;;8.30;99.90;;;8.42;100.00;97901.69;5044664;27;119017;-71
2022/09/28 03:32:45;;;;;;;14.40;9.25;;;8.30;99.90;;;8.42;100.00;97896.25;5040105;27;129796;-69
2022/09/28 03:35:14;;;;;;;11.70;8.82;;;8.30;99.90;;;8.42;100.00;97898.97;5054750;27;129322;-70
2022/09/28 03:37:43;;;;;;;12.30;9.13;;;8.30;99.90;;;8.32;100.00;97891.28;5057945;27;122131;-70
2022/09/28 03:40:11;;;;;;;11.90;8.60;;;8.30;99.90;;;8.34;100.00;97889.06;5044057;27;121278;-69
2022/09/28 03:42:42;;;;;;;11.98;8.95;;;8.30;99.90;;;8.37;100.00;97877.56;5039788;27;129852;-69
2022/09/28 03:45:12;;;;;;;12.75;9.20;;;8.20;99.90;;;8.37;100.00;97877.56;5043289;27;129511;-70
2022/09/28 03:47:46;;;;;;;13.13;8.75;;;8.30;99.90;;;8.38;100.00;97882.63;5039665;27;119751;-68
2022/09/28 03:50:15;;;;;;;11.82;8.80;;;8.20;99.90;;;8.43;100.00;97887.00;5044379;27;119081;-69
2022/09/28 03:52:43;;;;;;;11.57;8.75;;;8.20;99.90;;;8.37;100.00;97882.97;5058791;27;129960;-71
2022/09/28 03:55:12;;;;;;;10.48;7.90;;;8.20;99.90;;;8.26;100.00;97878.00;5061889;27;129628;-71
2022/09/28 03:57:40;;;;;;;12.18;9.27;;;8.20;99.90;;;8.24;100.00;97877.56;5044171;27;120034;-70
2022/09/28 04:00:11;;;;;;;11.60;8.50;;;8.20;99.90;;;8.25;100.00;97871.00;5064720;27;119282;-70
2022/09/28 04:02:43;;;;;;;12.93;8.80;;;8.10;99.90;;;8.22;100.00;97874.38;5057947;27;130976;-71
2022/09/28 04:05:13;;;;;;;12.23;9.05;;;8.10;99.90;;;8.19;100.00;97866.16;5063064;27;129271;-69
2022/09/28 04:07:42;;;;;;;12.68;9.15;;;8.10;99.90;;;8.17;100.00;97863.78;5060324;27;119519;-69
2022/09/28 04:10:10;;;;;;;12.43;8.82;;;8.10;99.90;;;8.19;100.00;97861.53;5046640;27;119110;-71
2022/09/28 04:12:39;;;;;;;11.43;8.18;;;8.00;99.90;;;8.10;100.00;97874.34;5041317;27;130565;-71
2022/09/28 04:15:09;;;;;;;12.25;8.18;;;8.10;99.90;;;8.09;100.00;97872.78;5059167;27;130148;-69
2022/09/28 04:17:38;;;;;;;12.63;9.02;;;8.10;99.90;;;8.13;100.00;97862.88;5041653;27;120015;-70
2022/09/28 04:20:09;;;;;;;10.95;8.30;;;8.10;99.90;;;8.12;100.00;97857.81;5046796;27;118890;-70
2022/09/28 04:22:46;;;;;;;10.07;7.80;;;8.10;99.90;;;8.12;100.00;97861.31;5043254;27;129763;-69
2022/09/28 04:25:15;;;;;;;11.07;7.30;;;8.10;99.90;;;8.09;100.00;97867.38;5046076;27;129712;-71
2022/09/28 04:30:31;;;;;;;10.80;7.65;;;8.10;99.90;;;8.14;100.00;97859.06;5059168;27;122124;-68
2022/09/28 04:32:59;;;;;;;10.85;8.23;;;8.10;99.90;;;8.09;100.00;97853.88;5041406;27;129748;-69
2022/09/28 04:35:30;;;;;;;10.57;7.72;;;8.10;99.90;;;8.12;100.00;97853.22;5062798;27;129240;-69
2022/09/28 04:38:00;;;;;;;9.98;7.60;;;8.20;99.90;;;8.22;100.00;97860.88;5040708;27;119993;-68
2022/09/28 04:40:29;;;;;;;10.40;7.25;;;8.20;99.90;;;8.31;100.00;97857.28;5046605;27;119656;-70
2022/09/28 04:42:57;;;;;;;9.65;7.55;;;8.20;99.90;;;8.36;100.00;97857.06;5042838;27;131384;-68
2022/09/28 04:45:27;;;;;;;11.30;7.72;;;8.20;99.90;;;8.37;100.00;97850.53;5046664;27;128980;-69
2022/09/28 04:48:00;;;;;;;9.38;7.00;;;8.20;99.90;;;8.43;100.00;97846.47;5043481;27;120349;-68
2022/09/28 04:50:52;;;;;;;9.98;7.05;;;8.30;99.90;;;8.42;100.00;97836.78;5046295;27;118889;-69
2022/09/28 04:53:26;;;;;;;9.32;6.97;;;8.30;99.90;;;8.51;100.00;97837.50;5041271;27;130259;-68
2022/09/28 04:55:59;;;;;;;10.20;6.57;;;8.40;99.90;;;8.45;100.00;97838.84;5046319;27;128797;-70
2022/09/28 04:58:29;;;;;;;7.43;6.15;;;8.30;99.90;;;8.58;100.00;97840.41;5042791;27;119957;-70
2022/09/28 05:01:01;;;;;;;10.30;6.70;;;8.40;99.90;;;8.71;100.00;97843.13;5044286;27;119293;-69
2022/09/28 05:03:49;;;;;;;9.00;6.57;;;8.50;99.90;;;8.72;100.00;97842.78;5039334;27;130089;-70
2022/09/28 05:06:37;;;;;;;9.75;6.47;;;8.50;99.90;;;8.72;100.00;97828.47;5039570;27;130147;-69
2022/09/28 05:09:09;;;;;;;11.75;6.03;;;8.50;99.90;;;8.65;100.00;97823.66;5026609;27;119227;-70
2022/09/28 05:11:37;;;;;;;8.98;5.88;;;8.40;99.90;;;8.63;100.00;97821.28;5033186;27;121419;-69
2022/09/28 05:14:11;;;;;;;7.32;5.65;;;8.40;99.90;;;8.71;100.00;97826.88;5063046;27;130296;-69
2022/09/28 05:16:41;;;;;;;7.93;5.75;;;8.50;99.90;;;8.75;100.00;97822.38;5044388;27;130121;-70
2022/09/28 05:19:28;;;;;;;8.50;5.80;;;8.50;99.90;;;8.52;100.00;97822.84;5060342;27;122002;-70
2022/09/28 05:22:05;;;;;;;;;;;8.50;99.90;;;8.63;100.00;97818.56;5059889;27;122273;-69
2022/09/28 05:24:41;;;;;;;8.45;6.25;;;8.50;99.90;;;8.88;100.00;97820.44;5028597;27;129320;-70
2022/09/28 05:27:10;;;;;;;8.23;6.10;;;8.60;99.90;;;9.20;100.00;97818.69;5050825;27;131443;-70
2022/09/28 05:29:39;;;;;;;11.20;6.00;;;8.90;99.90;;;9.16;100.00;97815.06;5049037;27;119789;-70
2022/09/28 05:32:26;;;;;;;9.02;6.40;;;8.80;99.90;;;9.26;100.00;97803.78;5060780;27;119506;-70
2022/09/28 05:35:13;;;;;;;9.70;6.65;;;8.90;99.90;;;9.39;100.00;97807.22;5054310;27;129444;-70
2022/09/28 05:37:48;;;;;;;7.55;6.22;;;9.00;99.90;;;9.55;100.00;97799.13;5041046;27;129505;-69
2022/09/28 05:40:18;;;;;;;8.43;6.70;;;9.10;99.90;;;9.38;100.00;97805.66;5059654;27;119210;-70
2022/09/28 05:42:47;;;;;;;9.77;6.65;;;9.00;99.90;;;9.38;100.00;97800.25;5050927;27;120198;-70
2022/09/28 05:45:16;;;;;;;8.05;6.07;;;9.00;99.90;;;9.61;100.00;97805.88;5040505;27;129724;-70
2022/09/28 05:47:47;;;;;;;9.18;6.45;;;9.20;99.90;;;9.62;100.00;97799.34;5054232;27;129660;-70
2022/09/28 05:50:19;;;;;;;7.85;5.90;;;9.20;99.90;;;9.76;100.00;97804.34;5025877;27;120031;-68
2022/09/28 05:52:56;;;;;;;10.50;6.93;;;9.30;99.90;;;9.77;100.00;97799.69;5025916;27;119148;-72
2022/09/28 05:55:27;;;;;;;7.95;6.40;;;9.30;99.90;;;10.10;100.00;97814.84;5022268;27;130131;-72
2022/09/28 05:57:59;;;;;;;9.90;6.93;;;9.50;99.90;;;10.19;100.00;97815.47;5039610;27;129500;-69
2022/09/28 06:00:28;;;;;;;8.20;6.30;;;9.60;99.90;;;10.34;100.00;97822.84;5059390;27;119611;-70
2022/09/28 06:03:00;;;;;;;8.15;6.55;;;9.70;99.90;;;10.35;100.00;97819.00;5059816;27;119500;-69
2022/09/28 06:05:31;;;;;;;9.45;6.95;;;9.60;99.90;;;10.14;100.00;97821.16;5058062;27;130875;-69
2022/09/28 06:08:00;;;;;;;9.45;7.32;;;9.40;99.90;;;10.09;100.00;97822.22;5057577;27;129486;-70
2022/09/28 06:10:30;;;;;;;10.77;8.73;;;9.30;99.90;;;9.95;100.00;97830.75;5042506;27;121594;-70
2022/09/28 06:13:02;;;;;;;11.38;9.60;;;9.10;99.90;;;9.92;100.00;97817.91;5040680;27;122467;-72
2022/09/28 06:15:33;;;;;;;13.90;9.90;;;9.10;99.90;;;9.63;100.00;97824.47;5059950;27;129957;-73
2022/09/28 06:18:04;;;;;;;15.40;9.95;;;8.90;99.90;;;9.25;100.00;97813.00;5061256;27;129327;-69
2022/09/28 06:20:44;;;;;;;14.18;10.43;;;8.80;99.90;;;9.22;100.00;97812.94;5061868;27;119736;-71
2022/09/28 06:23:17;;;;;;;12.18;10.43;;;8.70;99.90;;;9.22;100.00;97802.88;5042000;27;119269;-67
2022/09/28 06:25:47;;;;;;;13.73;10.68;;;8.70;99.90;;;9.03;100.00;97808.13;5045003;27;129560;-69
2022/09/28 06:28:17;;;;;;;12.68;10.55;;;8.60;99.90;;;8.81;100.00;97804.78;5058924;27;129526;-70
2022/09/28 06:30:46;;;;;;;12.43;10.98;;;8.50;99.90;;;8.92;100.00;97803.19;5045455;27;120296;-68
2022/09/28 06:33:18;;;;;;;12.73;11.40;;;8.60;99.90;;;9.10;100.00;97805.63;5059168;27;119532;-69
2022/09/28 06:35:47;;;;;;;15.70;11.10;;;8.60;99.90;;;9.15;100.00;97803.47;5043089;27;129619;-70
2022/09/28 06:38:16;;;;;;;13.02;11.02;;;8.70;99.90;;;8.94;100.00;97802.84;5044585;27;128217;-70
2022/09/28 06:40:47;;;;;;;13.75;10.98;;;8.60;99.90;;;8.96;100.00;97790.56;5059914;27;119863;-69
2022/09/28 06:43:15;;;;;;;14.93;11.30;;;8.70;99.90;;;9.28;100.00;97796.09;5062427;27;119283;-70
2022/09/28 06:46:03;;;;;;;13.73;11.98;;;8.90;99.90;;;9.41;100.00;97798.75;5049127;27;129891;-69
2022/09/28 06:48:46;;;;;;;15.20;12.40;;;9.00;99.90;;;9.57;100.00;97796.88;5047837;27;130039;-70
2022/09/28 06:51:19;;;;;;;13.50;11.02;;;9.00;99.90;;;9.69;100.00;97794.13;5040856;27;119825;-69
2022/09/28 06:54:08;;;;;;;16.67;12.05;;;9.10;99.90;;;9.64;100.00;97802.47;5059767;27;119774;-70
2022/09/28 06:57:03;;;;;;;13.23;11.13;;;9.00;99.90;;;9.64;100.00;97797.06;5045709;27;129813;-71
2022/09/28 06:59:32;;;;;;;12.93;10.73;;;9.00;99.90;;;9.47;100.00;97786.53;5044325;27;129445;-70
2022/09/28 07:02:01;;;;;;;15.77;11.30;;;9.00;99.90;;;9.30;100.00;97791.13;5040638;27;122287;-69
2022/09/28 07:04:56;;;;;;;16.20;12.50;;;8.90;99.90;;;9.04;100.00;97801.56;5025031;27;122163;-71
2022/09/28 07:08:00;;;;;;;14.88;10.95;;;8.80;99.90;;;9.12;100.00;97793.34;4982567;28;128667;-70
2022/09/28 07:10:55;;;;;;;12.68;10.00;;;8.90;99.90;;;9.05;100.00;97784.22;5039290;27;130013;-71
2022/09/28 07:13:47;;;;;;;14.38;10.93;;;8.80;99.90;;;8.93;100.00;97782.34;5033859;27;119558;-73
2022/09/28 07:16:16;;;;;;;15.48;11.50;;;8.70;99.90;;;9.11;100.00;97790.97;5040876;27;119926;-69
2022/09/28 07:18:44;;;;;;;15.65;10.85;;;8.90;99.90;;;9.35;100.00;97782.75;5037892;27;130734;-70
2022/09/28 07:21:13;;;;;;;12.98;10.00;;;9.00;99.90;;;9.55;100.00;97777.47;5024775;27;128659;-68
2022/09/28 07:23:42;;;;;;;12.88;9.27;;;9.10;99.90;;;9.62;100.00;97788.50;5037963;27;119794;-71
2022/09/28 07:26:32;;;;;;;15.70;10.02;;;9.10;99.90;;;9.44;100.00;97777.22;5042375;27;119546;-70
2022/09/28 07:29:15;;;;;;;15.65;10.32;;;9.00;99.90;;;9.34;100.00;97783.88;5037881;27;130986;-74
2022/09/28 07:32:08;;;;;;;15.27;11.00;;;8.90;99.90;;;9.00;100.00;97783.31;5042597;27;130021;-71
2022/09/28 07:34:55;;;;;;;18.23;10.18;;;8.70;99.90;;;9.05;100.00;97776.88;5045923;27;119355;-71
2022/09/28 07:37:35;;;;;;;16.92;10.60;;;8.80;99.90;;;9.05;100.00;97776.09;5044036;27;119321;-74
2022/09/28 07:42:51;;;;;;;16.58;11.73;;;8.70;99.90;;;8.94;100.00;97765.78;5042534;27;129731;-69
2022/09/28 07:45:22;;;;;;;14.85;10.25;;;8.70;99.90;;;9.20;100.00;97772.66;5041396;27;119526;-69
2022/09/28 07:47:54;;;;;;;13.77;10.35;;;8.80;99.90;;;9.39;100.00;97763.13;5037675;27;118782;-69
2022/09/28 07:50:58;;;;;;;15.40;10.73;;;8.90;99.90;;;9.31;100.00;97773.75;4942403;28;129875;-71
2022/09/28 07:53:48;;;;;;;16.80;11.55;;;8.90;99.90;;;9.22;100.00;97764.97;5019899;27;129287;-69
2022/09/28 07:56:36;;;;;;;15.18;10.45;;;8.80;99.90;;;9.08;100.00;97764.59;5035841;27;122518;-71
2022/09/28 07:59:29;;;;;;;16.90;11.73;;;8.70;99.90;;;8.90;100.00;97764.09;5015914;27;122401;-71
2022/09/28 08:02:21;;;;;;;18.90;11.52;;;8.50;99.90;;;8.99;100.00;97757.41;5037142;27;131337;-73
2022/09/28 08:04:50;;;;;;;17.08;11.63;;;8.70;99.90;;;9.14;100.00;97757.81;5047121;27;129586;-71
2022/09/28 08:07:20;;;;;;;18.77;10.88;;;8.70;99.90;;;9.12;100.00;97754.66;5061576;27;120011;-70
2022/09/28 08:09:53;;;;;;;17.85;11.82;;;8.70;99.90;;;9.21;100.00;97758.00;5044311;27;118644;-70
2022/09/28 08:12:41;;;;;;;17.33;10.65;;;8.80;99.90;;;9.25;100.00;97750.75;5045760;27;129496;-72
2022/09/28 08:15:43;;;;;;;14.40;10.00;;;8.80;99.90;;;9.34;100.00;97751.41;5041660;27;129682;-70
2022/09/28 08:18:25;;;;;;;18.83;10.63;;;8.90;99.90;;;9.38;100.00;97756.94;5061593;27;119666;-73
2022/09/28 08:23:40;;;;;;;14.32;9.30;;;8.70;99.90;;;9.11;100.00;97758.50;5040753;27;130104;-71
2022/09/28 08:26:09;;;;;;;13.43;8.75;;;8.70;99.90;;;9.31;100.00;97746.69;5042315;27;130108;-70
2022/09/28 08:28:38;;;;;;;17.88;9.98;;;8.90;99.90;;;9.14;100.00;97741.56;5042065;27;119472;-70
2022/09/28 08:31:26;;;;;;;14.80;9.38;;;8.80;99.90;;;9.25;100.00;97745.34;5044766;27;119946;-70
2022/09/28 08:34:16;;;;;;;14.45;9.43;;;8.90;99.90;;;9.22;100.00;97748.75;5023406;27;130202;-71
2022/09/28 08:37:04;;;;;;;14.00;9.13;;;8.80;99.90;;;9.42;100.00;97748.91;5041488;27;129404;-70
2022/09/28 08:39:55;;;;;;;15.57;9.38;;;9.00;99.90;;;9.37;100.00;97746.44;5038554;27;119151;-71
2022/09/28 08:42:43;;;;;;;15.57;9.90;;;9.00;99.90;;;9.55;100.00;97753.09;5027345;27;119588;-69
2022/09/28 08:45:50;;;;;;;16.45;11.10;;;9.00;99.90;;;9.60;100.00;97758.28;5044443;27;129885;-70
2022/09/28 08:48:56;;;;;;;18.25;11.35;;;9.10;99.90;;;9.50;100.00;97753.34;5025762;27;129523;-73
2022/09/28 08:51:42;;;;;;;17.73;11.23;;;9.00;99.90;;;9.61;100.00;97759.84;5022523;27;122118;-70
2022/09/28 08:54:36;;;;;;;18.50;11.32;;;9.10;99.90;;;9.23;100.00;97755.75;5026555;27;122066;-69
2022/09/28 08:57:12;;;;;;;14.15;10.68;;;8.90;99.90;;;9.19;100.00;97760.25;5023199;27;129946;-70
2022/09/28 08:59:50;;;;;;;18.30;10.40;;;8.80;99.90;;;9.22;100.00;97758.78;5048203;27;129827;-70
2022/09/28 09:02:28;;;;;;;14.63;9.85;;;8.80;99.90;;;9.20;100.00;97764.56;5061968;27;119591;-70
2022/09/28 09:05:14;;;;;;;18.65;11.02;;;8.90;99.90;;;9.37;100.00;97759.97;5059731;27;118894;-73
2022/09/28 09:08:41;;;;;;;21.83;11.43;;;8.90;99.90;;;9.30;100.00;97755.13;5032892;27;129956;-71
2022/09/28 09:11:21;;;;;;;16.08;10.55;;;8.90;99.90;;;9.11;100.00;97755.78;5036703;27;129159;-71
2022/09/28 09:14:21;;;;;;;15.30;10.18;;;8.80;99.90;;;9.24;100.00;97761.94;5041453;27;119602;-70
2022/09/28 09:17:01;;;;;;;19.00;10.85;;;8.90;99.90;;;9.25;100.00;97752.69;5022429;27;118751;-69
2022/09/28 09:19:54;;;;;;;19.35;11.60;;;8.90;99.90;;;9.26;100.00;97754.28;5019382;28;129937;-70
2022/09/28 09:22:59;;;;;;;17.67;12.25;;;8.80;99.90;;;9.18;100.00;97758.69;5016652;28;128548;-72
2022/09/28 09:25:41;;;;;;;19.35;13.48;;;8.70;99.90;;;8.97;100.00;97754.25;5019564;28;119542;-70
2022/09/28 09:28:59;;;;;;;18.23;11.68;;;8.70;99.90;;;9.06;100.00;97756.03;5019641;28;119238;-70
2022/09/28 09:31:56;;;;;;;17.70;10.02;;;8.80;99.90;;;9.36;100.00;97756.47;5022263;28;129077;-71
2022/09/28 09:35:04;;;;;;;17.95;11.63;;;9.00;99.90;;;9.34;100.00;97753.31;5019084;28;129463;-72
2022/09/28 09:38:32;;;;;;;16.38;10.70;;;8.90;99.90;;;9.41;100.00;97758.94;5023786;28;119407;-73
2022/09/28 09:41:45;;;;;;;14.18;10.23;;;8.90;99.90;;;9.35;100.00;97763.81;5024037;28;119544;-71
2022/09/28 09:45:23;;;;;;;16.55;11.70;;;8.90;99.90;;;9.51;100.00;97755.72;5000221;28;129792;-71
2022/09/28 09:48:14;;;;;;;16.85;11.23;;;9.00;99.90;;;9.60;100.00;97752.84;5037462;27;129945;-73
2022/09/28 09:50:49;;;;;;;15.35;9.88;;;9.00;99.90;;;9.36;100.00;97748.34;5021469;27;121507;-76
2022/09/28 09:53:25;;;;;;;15.80;10.77;;;8.80;99.90;;;9.25;100.00;97764.28;5023230;28;121713;-77
2022/09/28 09:56:00;;;;;;;14.15;9.48;;;8.80;99.90;;;9.51;100.00;97760.34;5019771;27;130156;-77
2022/09/28 09:58:44;;;;;;;16.65;10.38;;;9.00;99.90;;;9.53;100.00;97764.28;5054382;27;129849;-73
2022/09/28 10:01:37;;;;;;;15.13;10.15;;;9.00;99.90;;;9.62;100.00;97766.84;5040772;27;120061;-73
2022/09/28 10:04:22;;;;;;;;;;;9.00;99.90;;;9.33;100.00;97766.09;5045438;27;118601;-76
2022/09/28 10:06:58;;;;;;;13.40;9.45;;;8.90;99.90;;;9.35;100.00;97758.41;5039852;27;129959;-77
2022/09/28 10:09:33;;;;;;;11.73;8.83;;;9.00;99.90;;;9.41;100.00;97760.84;5060440;27;129128;-74
2022/09/28 10:12:21;;;;;;;12.82;9.23;;;9.00;99.90;;;9.53;100.00;97763.50;5025981;27;119391;-76
2022/09/28 10:14:54;;;;;;;14.45;9.35;;;9.00;99.90;;;9.37;100.00;97758.06;5058133;27;119686;-77
2022/09/28 10:17:26;;;;;;;14.90;9.80;;;9.00;99.90;;;9.42;100.00;97762.44;5021194;27;129602;-76
2022/09/28 10:20:15;;;;;;;14.35;9.18;;;9.00;99.90;;;9.51;100.00;97757.66;5042990;27;128738;-75
2022/09/28 10:22:44;;;;;;;14.38;9.85;;;9.00;99.90;;;9.56;100.00;97762.81;5042009;27;119297;-73
2022/09/28 10:25:18;;;;;;;16.30;10.60;;;9.00;99.90;;;9.54;100.00;97765.84;5026889;27;119675;-76
2022/09/28 10:27:51;;;;;;;18.30;11.88;;;9.00;99.90;;;9.60;100.00;97752.06;5043805;27;129006;-74
2022/09/28 10:30:23;;;;;;;18.90;12.02;;;9.10;99.90;;;9.49;100.00;97751.78;5041703;27;129665;-74
2022/09/28 10:32:58;;;;;;;15.23;10.48;;;9.00;99.90;;;9.56;100.00;97751.19;5043120;27;119997;-75
2022/09/28 10:35:40;;;;;;;19.65;11.80;;;9.00;99.90;;;9.51;100.00;97760.34;5041751;27;119397;-76
2022/09/28 10:38:18;;;;;;;17.23;10.00;;;8.90;99.90;;;9.51;100.00;97758.44;5043131;27;130333;-75
2022/09/28 10:40:54;;;;;;;16.95;9.07;;;9.00;99.90;;;9.41;100.00;97750.00;5023242;27;129373;-73
2022/09/28 10:43:50;;;;;;;12.53;9.43;;;9.00;99.90;;;9.25;100.00;97755.41;5040555;27;120952;-74
2022/09/28 10:46:23;;;;;;;16.45;9.75;;;8.80;99.90;;;9.17;100.00;97752.47;5039312;27;122270;-75
2022/09/28 10:49:00;;;;;;;15.57;10.00;;;8.80;99.90;;;9.23;100.00;97744.13;5024816;27;129646;-74
2022/09/28 10:51:42;;;;;;;15.25;10.25;;;8.80;99.90;;;9.26;100.00;97755.06;5042854;27;128906;-74
2022/09/28 10:54:19;;;;;;;21.05;11.35;;;8.90;99.90;;;9.32;100.00;97748.25;5042550;27;119379;-75
2022/09/28 10:56:51;;;;;;;14.70;9.98;;;8.90;99.90;;;9.51;100.00;97744.09;5038126;27;119487;-74
2022/09/28 10:59:40;;;;;;;17.13;10.55;;;9.10;99.90;;;9.39;100.00;97747.66;5039282;27;129229;-74
2022/09/28 11:02:32;;;;;;;14.95;10.82;;;9.00;99.90;;;9.43;100.00;97745.06;5036891;27;129505;-76
2022/09/28 11:05:07;;;;;;;16.75;10.45;;;9.00;99.90;;;9.41;100.00;97741.91;5037318;27;119632;-75